sensor_id;sensor_type;location;lat;lon;timestamp;P1;durP1;ratioP1;P2;durP2;ratioP2
28834;SDS011;15969;51.536;11.884;2023-04-01T00:00:49;2.40;;;1.20;;
28834;SDS011;15969;51.536;11.884;2023-04-01T00:03:17;2.37;;;1.30;;
28834;SDS011;15969;51.536;11.884;2023-04-01T00:05:43;3.73;;;1.17;;
28834;SDS011;15969;51.536;11.884;2023-04-01T00:08:10;4.07;;;1.37;;
28834;SDS011;15969;51.536;11.884;2023-04-01T00:10:36;2.73;;;1.23;;
28834;SDS011;15969;51.536;11.884;2023-04-01T00:13:01;1.23;;;0.97;;
28834;SDS011;15969;51.536;11.884;2023-04-01T00:15:27;3.53;;;1.23;;
28834;SDS011;15969;51.536;11.884;2023-04-01T00:17:53;2.10;;;1.20;;
28834;SDS011;15969;51.536;11.884;2023-04-01T00:20:19;2.53;;;1.10;;
28834;SDS011;15969;51.536;11.884;2023-04-01T00:22:45;4.23;;;1.37;;
28834;SDS011;15969;51.536;11.884;2023-04-01T00:25:11;2.90;;;1.20;;
28834;SDS011;15969;51.536;11.884;2023-04-01T00:27:37;2.40;;;1.07;;
28834;SDS011;15969;51.536;11.884;2023-04-01T00:30:03;3.73;;;1.23;;
28834;SDS011;15969;51.536;11.884;2023-04-01T00:32:29;3.10;;;1.40;;
28834;SDS011;15969;51.536;11.884;2023-04-01T00:34:56;4.77;;;1.60;;
28834;SDS011;15969;51.536;11.884;2023-04-01T00:37:23;3.37;;;1.60;;
28834;SDS011;15969;51.536;11.884;2023-04-01T00:39:49;2.53;;;1.00;;
28834;SDS011;15969;51.536;11.884;2023-04-01T00:42:15;2.80;;;1.00;;
28834;SDS011;15969;51.536;11.884;2023-04-01T00:44:41;3.40;;;1.20;;
28834;SDS011;15969;51.536;11.884;2023-04-01T00:47:07;4.53;;;1.53;;
28834;SDS011;15969;51.536;11.884;2023-04-01T00:49:33;2.47;;;1.27;;
28834;SDS011;15969;51.536;11.884;2023-04-01T00:52:04;5.17;;;1.27;;
28834;SDS011;15969;51.536;11.884;2023-04-01T00:54:33;7.70;;;1.63;;
28834;SDS011;15969;51.536;11.884;2023-04-01T00:57:20;3.33;;;1.43;;
28834;SDS011;15969;51.536;11.884;2023-04-01T00:59:52;2.57;;;1.27;;
28834;SDS011;15969;51.536;11.884;2023-04-01T01:02:20;2.40;;;1.33;;
28834;SDS011;15969;51.536;11.884;2023-04-01T01:04:46;3.37;;;1.50;;
28834;SDS011;15969;51.536;11.884;2023-04-01T01:10:02;3.43;;;1.63;;
28834;SDS011;15969;51.536;11.884;2023-04-01T01:12:44;3.87;;;1.50;;
28834;SDS011;15969;51.536;11.884;2023-04-01T01:18:29;5.03;;;1.37;;
28834;SDS011;15969;51.536;11.884;2023-04-01T01:24:13;3.10;;;1.43;;
28834;SDS011;15969;51.536;11.884;2023-04-01T01:27:00;1.73;;;1.10;;
28834;SDS011;15969;51.536;11.884;2023-04-01T01:29:45;3.17;;;1.13;;
28834;SDS011;15969;51.536;11.884;2023-04-01T01:38:15;5.93;;;1.70;;
28834;SDS011;15969;51.536;11.884;2023-04-01T01:40:45;3.37;;;1.20;;
28834;SDS011;15969;51.536;11.884;2023-04-01T01:43:17;5.23;;;1.20;;
28834;SDS011;15969;51.536;11.884;2023-04-01T01:45:50;3.43;;;1.17;;
28834;SDS011;15969;51.536;11.884;2023-04-01T01:48:21;4.90;;;1.27;;
28834;SDS011;15969;51.536;11.884;2023-04-01T01:50:49;4.00;;;1.27;;
28834;SDS011;15969;51.536;11.884;2023-04-01T01:53:16;1.10;;;0.97;;
28834;SDS011;15969;51.536;11.884;2023-04-01T01:55:42;3.13;;;1.13;;
28834;SDS011;15969;51.536;11.884;2023-04-01T01:58:17;2.30;;;1.10;;
28834;SDS011;15969;51.536;11.884;2023-04-01T02:00:52;2.43;;;0.97;;
28834;SDS011;15969;51.536;11.884;2023-04-01T02:03:22;2.13;;;1.20;;
28834;SDS011;15969;51.536;11.884;2023-04-01T02:05:50;3.93;;;1.43;;
28834;SDS011;15969;51.536;11.884;2023-04-01T02:08:28;4.13;;;1.13;;
28834;SDS011;15969;51.536;11.884;2023-04-01T02:11:09;3.20;;;1.40;;
28834;SDS011;15969;51.536;11.884;2023-04-01T02:13:40;1.37;;;1.20;;
28834;SDS011;15969;51.536;11.884;2023-04-01T02:16:15;4.60;;;1.27;;
28834;SDS011;15969;51.536;11.884;2023-04-01T02:18:46;3.90;;;1.40;;
28834;SDS011;15969;51.536;11.884;2023-04-01T02:21:15;3.77;;;1.20;;
28834;SDS011;15969;51.536;11.884;2023-04-01T02:23:43;3.20;;;1.30;;
28834;SDS011;15969;51.536;11.884;2023-04-01T02:26:10;1.87;;;1.13;;
28834;SDS011;15969;51.536;11.884;2023-04-01T02:28:37;1.20;;;1.03;;
28834;SDS011;15969;51.536;11.884;2023-04-01T02:31:05;4.40;;;1.33;;
28834;SDS011;15969;51.536;11.884;2023-04-01T02:33:34;1.70;;;0.93;;
28834;SDS011;15969;51.536;11.884;2023-04-01T02:36:01;2.37;;;1.20;;
28834;SDS011;15969;51.536;11.884;2023-04-01T02:38:28;3.23;;;1.20;;
28834;SDS011;15969;51.536;11.884;2023-04-01T02:41:00;4.60;;;1.27;;
28834;SDS011;15969;51.536;11.884;2023-04-01T02:43:27;4.77;;;1.50;;
28834;SDS011;15969;51.536;11.884;2023-04-01T02:45:53;2.97;;;1.33;;
28834;SDS011;15969;51.536;11.884;2023-04-01T02:48:19;2.27;;;1.60;;
28834;SDS011;15969;51.536;11.884;2023-04-01T02:50:45;3.97;;;1.23;;
28834;SDS011;15969;51.536;11.884;2023-04-01T02:53:11;2.90;;;1.20;;
28834;SDS011;15969;51.536;11.884;2023-04-01T02:55:37;2.50;;;1.00;;
28834;SDS011;15969;51.536;11.884;2023-04-01T02:58:03;2.57;;;1.40;;
28834;SDS011;15969;51.536;11.884;2023-04-01T03:00:29;2.63;;;1.03;;
28834;SDS011;15969;51.536;11.884;2023-04-01T03:02:55;2.50;;;1.57;;
28834;SDS011;15969;51.536;11.884;2023-04-01T03:05:21;3.57;;;1.40;;
28834;SDS011;15969;51.536;11.884;2023-04-01T03:07:47;3.73;;;1.17;;
28834;SDS011;15969;51.536;11.884;2023-04-01T03:10:13;4.70;;;1.50;;
28834;SDS011;15969;51.536;11.884;2023-04-01T03:12:39;3.03;;;1.17;;
28834;SDS011;15969;51.536;11.884;2023-04-01T03:15:05;1.60;;;1.20;;
28834;SDS011;15969;51.536;11.884;2023-04-01T03:17:31;3.07;;;1.10;;
28834;SDS011;15969;51.536;11.884;2023-04-01T03:19:57;1.83;;;1.10;;
28834;SDS011;15969;51.536;11.884;2023-04-01T03:22:23;2.60;;;1.60;;
28834;SDS011;15969;51.536;11.884;2023-04-01T03:24:49;2.87;;;1.33;;
28834;SDS011;15969;51.536;11.884;2023-04-01T03:27:14;2.80;;;1.50;;
28834;SDS011;15969;51.536;11.884;2023-04-01T03:29:40;2.50;;;1.53;;
28834;SDS011;15969;51.536;11.884;2023-04-01T03:32:06;1.50;;;1.00;;
28834;SDS011;15969;51.536;11.884;2023-04-01T03:34:32;1.23;;;0.90;;
28834;SDS011;15969;51.536;11.884;2023-04-01T03:36:57;4.67;;;1.57;;
28834;SDS011;15969;51.536;11.884;2023-04-01T03:39:23;3.20;;;1.10;;
28834;SDS011;15969;51.536;11.884;2023-04-01T03:41:50;2.83;;;1.33;;
28834;SDS011;15969;51.536;11.884;2023-04-01T03:44:15;2.77;;;1.40;;
28834;SDS011;15969;51.536;11.884;2023-04-01T03:46:41;4.53;;;1.50;;
28834;SDS011;15969;51.536;11.884;2023-04-01T03:49:07;5.27;;;1.63;;
28834;SDS011;15969;51.536;11.884;2023-04-01T03:51:40;5.50;;;1.83;;
28834;SDS011;15969;51.536;11.884;2023-04-01T03:54:08;1.70;;;1.20;;
28834;SDS011;15969;51.536;11.884;2023-04-01T03:56:35;2.17;;;1.20;;
28834;SDS011;15969;51.536;11.884;2023-04-01T03:59:02;1.93;;;1.20;;
28834;SDS011;15969;51.536;11.884;2023-04-01T04:01:30;2.23;;;1.20;;
28834;SDS011;15969;51.536;11.884;2023-04-01T04:03:55;2.57;;;1.30;;
28834;SDS011;15969;51.536;11.884;2023-04-01T04:06:21;1.63;;;0.97;;
28834;SDS011;15969;51.536;11.884;2023-04-01T04:08:48;1.97;;;1.00;;
28834;SDS011;15969;51.536;11.884;2023-04-01T04:11:14;3.50;;;1.10;;
28834;SDS011;15969;51.536;11.884;2023-04-01T04:13:40;2.57;;;1.20;;
28834;SDS011;15969;51.536;11.884;2023-04-01T04:16:07;3.07;;;1.20;;
28834;SDS011;15969;51.536;11.884;2023-04-01T04:18:34;3.37;;;1.20;;
28834;SDS011;15969;51.536;11.884;2023-04-01T04:21:01;2.00;;;1.37;;
28834;SDS011;15969;51.536;11.884;2023-04-01T04:23:28;4.07;;;1.20;;
28834;SDS011;15969;51.536;11.884;2023-04-01T04:25:59;1.50;;;1.10;;
28834;SDS011;15969;51.536;11.884;2023-04-01T04:28:29;4.70;;;1.40;;
28834;SDS011;15969;51.536;11.884;2023-04-01T04:30:55;3.87;;;1.20;;
28834;SDS011;15969;51.536;11.884;2023-04-01T04:33:22;3.10;;;1.20;;
28834;SDS011;15969;51.536;11.884;2023-04-01T04:35:48;3.27;;;1.40;;
28834;SDS011;15969;51.536;11.884;2023-04-01T04:38:14;4.60;;;1.73;;
28834;SDS011;15969;51.536;11.884;2023-04-01T04:40:41;2.90;;;1.20;;
28834;SDS011;15969;51.536;11.884;2023-04-01T04:43:09;3.87;;;1.27;;
28834;SDS011;15969;51.536;11.884;2023-04-01T04:45:37;4.27;;;1.40;;
28834;SDS011;15969;51.536;11.884;2023-04-01T04:48:02;4.10;;;1.80;;
28834;SDS011;15969;51.536;11.884;2023-04-01T04:50:28;2.10;;;0.90;;
28834;SDS011;15969;51.536;11.884;2023-04-01T04:52:54;3.40;;;1.00;;
28834;SDS011;15969;51.536;11.884;2023-04-01T04:55:20;3.33;;;1.10;;
28834;SDS011;15969;51.536;11.884;2023-04-01T04:57:46;1.43;;;1.10;;
28834;SDS011;15969;51.536;11.884;2023-04-01T05:00:12;2.40;;;1.03;;
28834;SDS011;15969;51.536;11.884;2023-04-01T05:02:37;2.40;;;1.10;;
28834;SDS011;15969;51.536;11.884;2023-04-01T05:05:03;2.73;;;1.40;;
28834;SDS011;15969;51.536;11.884;2023-04-01T05:07:30;3.63;;;1.33;;
28834;SDS011;15969;51.536;11.884;2023-04-01T05:09:55;2.93;;;1.17;;
28834;SDS011;15969;51.536;11.884;2023-04-01T05:12:21;1.80;;;1.20;;
28834;SDS011;15969;51.536;11.884;2023-04-01T05:14:47;3.43;;;1.43;;
28834;SDS011;15969;51.536;11.884;2023-04-01T05:17:12;7.30;;;1.70;;
28834;SDS011;15969;51.536;11.884;2023-04-01T05:19:38;1.70;;;1.23;;
28834;SDS011;15969;51.536;11.884;2023-04-01T05:22:05;3.43;;;1.70;;
28834;SDS011;15969;51.536;11.884;2023-04-01T05:24:31;3.27;;;1.80;;
28834;SDS011;15969;51.536;11.884;2023-04-01T05:26:57;5.63;;;1.87;;
28834;SDS011;15969;51.536;11.884;2023-04-01T05:29:24;4.73;;;2.30;;
28834;SDS011;15969;51.536;11.884;2023-04-01T05:31:51;5.30;;;1.83;;
28834;SDS011;15969;51.536;11.884;2023-04-01T05:34:16;2.63;;;1.50;;
28834;SDS011;15969;51.536;11.884;2023-04-01T05:36:42;5.20;;;1.60;;
28834;SDS011;15969;51.536;11.884;2023-04-01T05:39:08;2.40;;;1.60;;
28834;SDS011;15969;51.536;11.884;2023-04-01T05:41:35;4.00;;;1.40;;
28834;SDS011;15969;51.536;11.884;2023-04-01T05:44:01;3.53;;;2.43;;
28834;SDS011;15969;51.536;11.884;2023-04-01T05:46:27;2.63;;;1.40;;
28834;SDS011;15969;51.536;11.884;2023-04-01T05:48:53;3.67;;;1.83;;
28834;SDS011;15969;51.536;11.884;2023-04-01T05:51:19;3.93;;;1.37;;
28834;SDS011;15969;51.536;11.884;2023-04-01T05:53:45;3.07;;;1.37;;
28834;SDS011;15969;51.536;11.884;2023-04-01T05:56:11;3.27;;;1.20;;
28834;SDS011;15969;51.536;11.884;2023-04-01T05:58:37;2.40;;;1.13;;
28834;SDS011;15969;51.536;11.884;2023-04-01T06:01:03;6.10;;;1.50;;
28834;SDS011;15969;51.536;11.884;2023-04-01T06:03:32;5.00;;;1.30;;
28834;SDS011;15969;51.536;11.884;2023-04-01T06:05:58;2.83;;;1.20;;
28834;SDS011;15969;51.536;11.884;2023-04-01T06:08:26;3.20;;;1.43;;
28834;SDS011;15969;51.536;11.884;2023-04-01T06:14:04;3.83;;;1.40;;
28834;SDS011;15969;51.536;11.884;2023-04-01T06:22:08;2.37;;;1.10;;
28834;SDS011;15969;51.536;11.884;2023-04-01T06:25:02;2.57;;;1.10;;
28834;SDS011;15969;51.536;11.884;2023-04-01T06:31:20;3.67;;;1.10;;
28834;SDS011;15969;51.536;11.884;2023-04-01T06:34:26;2.13;;;1.03;;
28834;SDS011;15969;51.536;11.884;2023-04-01T06:43:37;4.40;;;0.87;;
28834;SDS011;15969;51.536;11.884;2023-04-01T06:46:55;2.80;;;0.80;;
28834;SDS011;15969;51.536;11.884;2023-04-01T06:57:50;3.73;;;1.20;;
28834;SDS011;15969;51.536;11.884;2023-04-01T07:00:29;2.60;;;0.77;;
28834;SDS011;15969;51.536;11.884;2023-04-01T07:03:02;1.73;;;1.00;;
28834;SDS011;15969;51.536;11.884;2023-04-01T07:06:00;2.93;;;1.10;;
28834;SDS011;15969;51.536;11.884;2023-04-01T07:08:31;3.23;;;0.90;;
28834;SDS011;15969;51.536;11.884;2023-04-01T07:11:02;1.53;;;0.90;;
28834;SDS011;15969;51.536;11.884;2023-04-01T07:16:43;0.90;;;0.70;;
28834;SDS011;15969;51.536;11.884;2023-04-01T07:19:17;3.27;;;1.20;;
28834;SDS011;15969;51.536;11.884;2023-04-01T07:21:48;2.60;;;0.87;;
28834;SDS011;15969;51.536;11.884;2023-04-01T07:24:26;3.20;;;0.70;;
28834;SDS011;15969;51.536;11.884;2023-04-01T07:26:58;2.87;;;1.00;;
28834;SDS011;15969;51.536;11.884;2023-04-01T07:29:24;1.67;;;0.90;;
28834;SDS011;15969;51.536;11.884;2023-04-01T07:35:13;2.70;;;0.70;;
28834;SDS011;15969;51.536;11.884;2023-04-01T07:41:45;2.97;;;1.00;;
28834;SDS011;15969;51.536;11.884;2023-04-01T07:44:33;3.10;;;1.10;;
28834;SDS011;15969;51.536;11.884;2023-04-01T07:50:28;2.07;;;1.00;;
28834;SDS011;15969;51.536;11.884;2023-04-01T07:53:03;2.60;;;1.10;;
28834;SDS011;15969;51.536;11.884;2023-04-01T07:55:48;5.43;;;1.30;;
28834;SDS011;15969;51.536;11.884;2023-04-01T07:58:31;2.23;;;0.97;;
28834;SDS011;15969;51.536;11.884;2023-04-01T08:04:16;1.37;;;0.80;;
28834;SDS011;15969;51.536;11.884;2023-04-01T08:07:23;2.00;;;1.20;;
28834;SDS011;15969;51.536;11.884;2023-04-01T08:13:08;2.30;;;1.00;;
28834;SDS011;15969;51.536;11.884;2023-04-01T08:16:17;3.03;;;1.03;;
28834;SDS011;15969;51.536;11.884;2023-04-01T08:19:05;1.30;;;0.63;;
28834;SDS011;15969;51.536;11.884;2023-04-01T08:21:51;2.50;;;0.90;;
28834;SDS011;15969;51.536;11.884;2023-04-01T08:32:53;2.23;;;1.00;;
28834;SDS011;15969;51.536;11.884;2023-04-01T08:37:58;2.07;;;1.03;;
28834;SDS011;15969;51.536;11.884;2023-04-01T08:40:41;3.53;;;1.10;;
28834;SDS011;15969;51.536;11.884;2023-04-01T08:46:26;3.33;;;0.87;;
28834;SDS011;15969;51.536;11.884;2023-04-01T08:49:12;2.87;;;1.07;;
28834;SDS011;15969;51.536;11.884;2023-04-01T08:52:05;2.30;;;0.93;;
28834;SDS011;15969;51.536;11.884;2023-04-01T08:57:52;2.33;;;0.97;;
28834;SDS011;15969;51.536;11.884;2023-04-01T09:00:57;2.20;;;1.10;;
28834;SDS011;15969;51.536;11.884;2023-04-01T09:12:39;3.30;;;0.83;;
28834;SDS011;15969;51.536;11.884;2023-04-01T09:15:19;2.77;;;0.93;;
28834;SDS011;15969;51.536;11.884;2023-04-01T09:21:42;1.73;;;0.63;;
28834;SDS011;15969;51.536;11.884;2023-04-01T09:27:28;2.97;;;0.90;;
28834;SDS011;15969;51.536;11.884;2023-04-01T09:33:36;4.13;;;0.90;;
28834;SDS011;15969;51.536;11.884;2023-04-01T09:36:43;2.87;;;0.90;;
28834;SDS011;15969;51.536;11.884;2023-04-01T09:39:38;0.97;;;0.60;;
28834;SDS011;15969;51.536;11.884;2023-04-01T09:45:17;1.37;;;0.73;;
28834;SDS011;15969;51.536;11.884;2023-04-01T09:54:19;1.27;;;0.50;;
28834;SDS011;15969;51.536;11.884;2023-04-01T10:00:44;2.07;;;0.83;;
28834;SDS011;15969;51.536;11.884;2023-04-01T10:03:20;4.00;;;1.37;;
28834;SDS011;15969;51.536;11.884;2023-04-01T10:15:18;2.43;;;0.90;;
28834;SDS011;15969;51.536;11.884;2023-04-01T10:21:06;0.63;;;0.50;;
28834;SDS011;15969;51.536;11.884;2023-04-01T10:24:21;0.77;;;0.50;;
28834;SDS011;15969;51.536;11.884;2023-04-01T10:27:34;2.60;;;0.37;;
28834;SDS011;15969;51.536;11.884;2023-04-01T10:36:46;2.63;;;0.63;;
28834;SDS011;15969;51.536;11.884;2023-04-01T10:39:34;0.70;;;0.57;;
28834;SDS011;15969;51.536;11.884;2023-04-01T10:44:58;1.77;;;0.57;;
28834;SDS011;15969;51.536;11.884;2023-04-01T10:56:55;1.73;;;0.50;;
28834;SDS011;15969;51.536;11.884;2023-04-01T11:03:06;1.13;;;0.50;;
28834;SDS011;15969;51.536;11.884;2023-04-01T11:06:40;0.87;;;0.57;;
28834;SDS011;15969;51.536;11.884;2023-04-01T11:25:09;1.47;;;0.60;;
28834;SDS011;15969;51.536;11.884;2023-04-01T11:52:52;1.30;;;0.50;;
28834;SDS011;15969;51.536;11.884;2023-04-01T12:09:20;0.80;;;0.40;;
28834;SDS011;15969;51.536;11.884;2023-04-01T12:12:18;0.70;;;0.50;;
28834;SDS011;15969;51.536;11.884;2023-04-01T12:15:11;1.67;;;0.50;;
28834;SDS011;15969;51.536;11.884;2023-04-01T12:18:00;1.00;;;0.50;;
28834;SDS011;15969;51.536;11.884;2023-04-01T12:20:49;1.53;;;0.50;;
28834;SDS011;15969;51.536;11.884;2023-04-01T12:23:39;0.90;;;0.50;;
28834;SDS011;15969;51.536;11.884;2023-04-01T12:29:19;0.60;;;0.57;;
28834;SDS011;15969;51.536;11.884;2023-04-01T12:34:53;0.70;;;0.40;;
28834;SDS011;15969;51.536;11.884;2023-04-01T12:40:30;0.90;;;0.50;;
28834;SDS011;15969;51.536;11.884;2023-04-01T12:46:09;1.97;;;0.70;;
28834;SDS011;15969;51.536;11.884;2023-04-01T12:51:53;1.27;;;0.67;;
28834;SDS011;15969;51.536;11.884;2023-04-01T13:16:08;1.87;;;0.63;;
28834;SDS011;15969;51.536;11.884;2023-04-01T13:27:45;0.77;;;0.47;;
28834;SDS011;15969;51.536;11.884;2023-04-01T13:33:26;1.73;;;0.60;;
28834;SDS011;15969;51.536;11.884;2023-04-01T13:36:16;1.20;;;0.70;;
28834;SDS011;15969;51.536;11.884;2023-04-01T13:42:06;1.23;;;0.50;;
28834;SDS011;15969;51.536;11.884;2023-04-01T13:51:41;1.60;;;0.50;;
28834;SDS011;15969;51.536;11.884;2023-04-01T14:01:08;1.60;;;0.70;;
28834;SDS011;15969;51.536;11.884;2023-04-01T14:09:57;2.43;;;0.60;;
28834;SDS011;15969;51.536;11.884;2023-04-01T14:18:29;0.80;;;0.60;;
28834;SDS011;15969;51.536;11.884;2023-04-01T14:26:56;0.93;;;0.83;;
28834;SDS011;15969;51.536;11.884;2023-04-01T14:33:45;2.60;;;0.70;;
28834;SDS011;15969;51.536;11.884;2023-04-01T14:39:35;0.93;;;0.70;;
28834;SDS011;15969;51.536;11.884;2023-04-01T14:45:19;1.43;;;0.97;;
28834;SDS011;15969;51.536;11.884;2023-04-01T14:51:09;0.70;;;0.60;;
28834;SDS011;15969;51.536;11.884;2023-04-01T14:53:43;1.40;;;0.90;;
28834;SDS011;15969;51.536;11.884;2023-04-01T14:56:39;3.13;;;1.10;;
28834;SDS011;15969;51.536;11.884;2023-04-01T14:59:10;0.90;;;0.77;;
28834;SDS011;15969;51.536;11.884;2023-04-01T15:01:51;1.10;;;0.80;;
28834;SDS011;15969;51.536;11.884;2023-04-01T15:07:39;1.60;;;0.70;;
28834;SDS011;15969;51.536;11.884;2023-04-01T15:16:11;1.37;;;0.70;;
28834;SDS011;15969;51.536;11.884;2023-04-01T15:25:18;0.70;;;0.50;;
28834;SDS011;15969;51.536;11.884;2023-04-01T15:28:09;1.20;;;0.60;;
28834;SDS011;15969;51.536;11.884;2023-04-01T15:42:36;0.93;;;0.40;;
28834;SDS011;15969;51.536;11.884;2023-04-01T16:00:50;0.90;;;0.80;;
28834;SDS011;15969;51.536;11.884;2023-04-01T16:03:46;1.10;;;0.70;;
28834;SDS011;15969;51.536;11.884;2023-04-01T16:06:44;1.23;;;0.70;;
28834;SDS011;15969;51.536;11.884;2023-04-01T16:09:50;1.30;;;0.60;;
28834;SDS011;15969;51.536;11.884;2023-04-01T16:16:06;2.43;;;1.80;;
28834;SDS011;15969;51.536;11.884;2023-04-01T16:19:37;1.47;;;1.30;;
28834;SDS011;15969;51.536;11.884;2023-04-01T16:42:31;2.30;;;1.97;;
28834;SDS011;15969;51.536;11.884;2023-04-01T16:48:13;3.73;;;2.17;;
28834;SDS011;15969;51.536;11.884;2023-04-01T16:51:19;2.20;;;1.83;;
28834;SDS011;15969;51.536;11.884;2023-04-01T16:53:47;3.50;;;1.70;;
28834;SDS011;15969;51.536;11.884;2023-04-01T16:56:54;5.43;;;4.93;;
28834;SDS011;15969;51.536;11.884;2023-04-01T16:59:29;2.00;;;1.90;;
28834;SDS011;15969;51.536;11.884;2023-04-01T17:04:43;2.07;;;1.80;;
28834;SDS011;15969;51.536;11.884;2023-04-01T17:24:57;2.87;;;1.57;;
28834;SDS011;15969;51.536;11.884;2023-04-01T17:30:28;3.20;;;1.50;;
28834;SDS011;15969;51.536;11.884;2023-04-01T17:41:50;4.87;;;1.70;;
28834;SDS011;15969;51.536;11.884;2023-04-01T17:44:48;2.30;;;1.77;;
28834;SDS011;15969;51.536;11.884;2023-04-01T17:50:46;2.20;;;1.53;;
28834;SDS011;15969;51.536;11.884;2023-04-01T17:56:49;4.40;;;2.57;;
28834;SDS011;15969;51.536;11.884;2023-04-01T17:59:34;3.33;;;2.00;;
28834;SDS011;15969;51.536;11.884;2023-04-01T18:07:50;6.50;;;2.43;;
28834;SDS011;15969;51.536;11.884;2023-04-01T18:14:04;3.07;;;2.53;;
28834;SDS011;15969;51.536;11.884;2023-04-01T18:22:42;3.03;;;1.63;;
28834;SDS011;15969;51.536;11.884;2023-04-01T18:25:14;2.10;;;1.80;;
28834;SDS011;15969;51.536;11.884;2023-04-01T18:38:55;1.73;;;1.63;;
28834;SDS011;15969;51.536;11.884;2023-04-01T18:47:27;2.60;;;1.67;;
28834;SDS011;15969;51.536;11.884;2023-04-01T18:50:22;3.53;;;1.80;;
28834;SDS011;15969;51.536;11.884;2023-04-01T18:52:59;1.90;;;1.80;;
28834;SDS011;15969;51.536;11.884;2023-04-01T18:55:41;2.50;;;2.30;;
28834;SDS011;15969;51.536;11.884;2023-04-01T18:58:16;3.00;;;2.10;;
28834;SDS011;15969;51.536;11.884;2023-04-01T19:00:55;2.63;;;1.70;;
28834;SDS011;15969;51.536;11.884;2023-04-01T19:03:48;1.97;;;1.87;;
28834;SDS011;15969;51.536;11.884;2023-04-01T19:09:15;2.00;;;1.90;;
28834;SDS011;15969;51.536;11.884;2023-04-01T19:12:18;2.47;;;2.27;;
28834;SDS011;15969;51.536;11.884;2023-04-01T19:15:13;2.70;;;2.50;;
28834;SDS011;15969;51.536;11.884;2023-04-01T19:21:19;2.53;;;2.33;;
28834;SDS011;15969;51.536;11.884;2023-04-01T19:24:12;2.60;;;2.40;;
28834;SDS011;15969;51.536;11.884;2023-04-01T19:27:24;3.37;;;2.87;;
28834;SDS011;15969;51.536;11.884;2023-04-01T19:30:12;2.90;;;2.70;;
28834;SDS011;15969;51.536;11.884;2023-04-01T19:33:04;2.40;;;2.20;;
28834;SDS011;15969;51.536;11.884;2023-04-01T19:39:31;2.90;;;2.60;;
28834;SDS011;15969;51.536;11.884;2023-04-01T19:41:56;7.30;;;3.70;;
28834;SDS011;15969;51.536;11.884;2023-04-01T19:44:49;3.80;;;3.50;;
28834;SDS011;15969;51.536;11.884;2023-04-01T19:47:53;2.97;;;2.77;;
28834;SDS011;15969;51.536;11.884;2023-04-01T19:51:39;3.03;;;2.83;;
28834;SDS011;15969;51.536;11.884;2023-04-01T19:54:20;2.50;;;2.30;;
28834;SDS011;15969;51.536;11.884;2023-04-01T20:00:06;2.63;;;2.43;;
28834;SDS011;15969;51.536;11.884;2023-04-01T20:08:45;3.30;;;3.10;;
28834;SDS011;15969;51.536;11.884;2023-04-01T20:14:43;4.20;;;3.90;;
28834;SDS011;15969;51.536;11.884;2023-04-01T20:17:18;3.17;;;2.97;;
28834;SDS011;15969;51.536;11.884;2023-04-01T20:19:58;2.90;;;2.70;;
28834;SDS011;15969;51.536;11.884;2023-04-01T20:22:38;3.27;;;3.07;;
28834;SDS011;15969;51.536;11.884;2023-04-01T20:25:40;4.70;;;3.23;;
28834;SDS011;15969;51.536;11.884;2023-04-01T20:28:13;2.87;;;2.67;;
28834;SDS011;15969;51.536;11.884;2023-04-01T20:30:59;4.50;;;3.20;;
28834;SDS011;15969;51.536;11.884;2023-04-01T20:36:58;3.00;;;2.70;;
28834;SDS011;15969;51.536;11.884;2023-04-01T20:39:48;2.97;;;2.67;;
28834;SDS011;15969;51.536;11.884;2023-04-01T20:42:34;3.00;;;2.80;;
28834;SDS011;15969;51.536;11.884;2023-04-01T20:48:34;2.80;;;2.60;;
28834;SDS011;15969;51.536;11.884;2023-04-01T20:51:05;2.70;;;2.50;;
28834;SDS011;15969;51.536;11.884;2023-04-01T20:53:48;3.27;;;2.97;;
28834;SDS011;15969;51.536;11.884;2023-04-01T20:59:23;3.03;;;2.73;;
28834;SDS011;15969;51.536;11.884;2023-04-01T21:11:01;4.97;;;4.57;;
28834;SDS011;15969;51.536;11.884;2023-04-01T21:17:08;2.77;;;2.57;;
28834;SDS011;15969;51.536;11.884;2023-04-01T21:20:25;3.00;;;2.80;;
28834;SDS011;15969;51.536;11.884;2023-04-01T21:23:13;3.27;;;3.07;;
28834;SDS011;15969;51.536;11.884;2023-04-01T21:32:22;3.00;;;2.80;;
28834;SDS011;15969;51.536;11.884;2023-04-01T21:38:11;2.67;;;2.47;;
28834;SDS011;15969;51.536;11.884;2023-04-01T21:50:46;3.57;;;3.20;;
28834;SDS011;15969;51.536;11.884;2023-04-01T21:56:29;3.40;;;3.20;;
28834;SDS011;15969;51.536;11.884;2023-04-01T22:10:59;3.10;;;2.80;;
28834;SDS011;15969;51.536;11.884;2023-04-01T22:13:37;3.50;;;3.20;;
28834;SDS011;15969;51.536;11.884;2023-04-01T22:16:46;4.50;;;4.10;;
28834;SDS011;15969;51.536;11.884;2023-04-01T22:19:50;3.57;;;3.27;;
28834;SDS011;15969;51.536;11.884;2023-04-01T22:22:49;3.93;;;3.63;;
28834;SDS011;15969;51.536;11.884;2023-04-01T22:25:37;4.20;;;3.90;;
28834;SDS011;15969;51.536;11.884;2023-04-01T22:28:38;4.87;;;4.47;;
28834;SDS011;15969;51.536;11.884;2023-04-01T22:31:16;4.10;;;3.80;;
28834;SDS011;15969;51.536;11.884;2023-04-01T22:34:10;4.77;;;4.37;;
28834;SDS011;15969;51.536;11.884;2023-04-01T22:39:48;3.63;;;3.33;;
28834;SDS011;15969;51.536;11.884;2023-04-01T22:42:43;3.90;;;3.60;;
28834;SDS011;15969;51.536;11.884;2023-04-01T22:47:56;4.20;;;3.80;;
28834;SDS011;15969;51.536;11.884;2023-04-01T22:50:39;3.80;;;3.50;;
28834;SDS011;15969;51.536;11.884;2023-04-01T22:53:25;3.90;;;3.60;;
28834;SDS011;15969;51.536;11.884;2023-04-01T22:56:44;5.43;;;4.30;;
28834;SDS011;15969;51.536;11.884;2023-04-01T22:59:26;4.43;;;3.97;;
28834;SDS011;15969;51.536;11.884;2023-04-01T23:02:30;4.73;;;3.53;;
28834;SDS011;15969;51.536;11.884;2023-04-01T23:05:03;4.50;;;4.10;;
28834;SDS011;15969;51.536;11.884;2023-04-01T23:10:39;4.60;;;4.20;;
28834;SDS011;15969;51.536;11.884;2023-04-01T23:13:14;3.83;;;3.53;;
28834;SDS011;15969;51.536;11.884;2023-04-01T23:15:45;5.17;;;3.70;;
28834;SDS011;15969;51.536;11.884;2023-04-01T23:18:22;3.63;;;3.33;;
28834;SDS011;15969;51.536;11.884;2023-04-01T23:21:10;4.03;;;3.37;;
28834;SDS011;15969;51.536;11.884;2023-04-01T23:24:04;3.37;;;3.07;;
28834;SDS011;15969;51.536;11.884;2023-04-01T23:29:37;3.13;;;2.90;;
28834;SDS011;15969;51.536;11.884;2023-04-01T23:32:05;3.60;;;3.30;;
28834;SDS011;15969;51.536;11.884;2023-04-01T23:34:39;3.33;;;3.03;;
28834;SDS011;15969;51.536;11.884;2023-04-01T23:37:07;3.10;;;2.80;;
28834;SDS011;15969;51.536;11.884;2023-04-01T23:39:37;4.93;;;3.00;;
28834;SDS011;15969;51.536;11.884;2023-04-01T23:44:38;3.03;;;2.60;;
28834;SDS011;15969;51.536;11.884;2023-04-01T23:47:04;2.70;;;2.40;;
28834;SDS011;15969;51.536;11.884;2023-04-01T23:49:35;3.20;;;2.90;;
28834;SDS011;15969;51.536;11.884;2023-04-01T23:54:49;4.33;;;2.87;;
28834;SDS011;15969;51.536;11.884;2023-04-01T23:57:27;2.77;;;2.57;;
